createdAt,value
2023-02-01T00:01:56.619Z,3.46
2023-02-01T00:04:23.139Z,3.47
2023-02-01T00:06:49.602Z,3.46
2023-02-01T00:09:16.077Z,3.49
2023-02-01T00:11:42.532Z,3.54
2023-02-01T00:14:09.336Z,3.47
2023-02-01T00:16:35.786Z,3.51
2023-02-01T00:19:03.436Z,3.58
2023-02-01T00:21:31.168Z,3.58
2023-02-01T00:23:57.705Z,3.51
2023-02-01T00:26:26.946Z,3.61
2023-02-01T00:28:53.570Z,3.60
2023-02-01T00:31:20.434Z,3.58
2023-02-01T00:33:50.099Z,3.57
2023-02-01T00:36:16.703Z,3.64
2023-02-01T00:38:43.197Z,3.56
2023-02-01T00:41:13.395Z,3.59
2023-02-01T00:43:39.892Z,3.60
2023-02-01T00:46:06.480Z,3.60
2023-02-01T00:48:32.968Z,3.57
2023-02-01T00:51:02.546Z,3.63
2023-02-01T00:53:29.460Z,3.59
2023-02-01T00:55:55.968Z,3.52
2023-02-01T00:58:24.871Z,3.40
2023-02-01T01:00:51.604Z,3.45
2023-02-01T01:03:20.966Z,3.39
2023-02-01T01:05:48.459Z,3.41
2023-02-01T01:08:15.243Z,3.44
2023-02-01T01:10:41.733Z,3.48
2023-02-01T01:13:08.491Z,3.56
2023-02-01T01:15:38.523Z,3.41
2023-02-01T01:18:05.032Z,3.38
2023-02-01T01:20:31.500Z,3.24
2023-02-01T01:22:57.980Z,3.32
2023-02-01T01:25:24.674Z,3.38
2023-02-01T01:27:51.719Z,3.41
2023-02-01T01:30:18.772Z,3.40
2023-02-01T01:32:45.333Z,3.45
2023-02-01T01:35:11.836Z,3.49
2023-02-01T01:37:38.385Z,3.50
2023-02-01T01:40:05.419Z,3.36
2023-02-01T01:42:31.999Z,3.23
2023-02-01T01:45:05.911Z,3.21
2023-02-01T01:47:35.202Z,3.24
2023-02-01T01:50:02.596Z,3.29
2023-02-01T01:52:29.216Z,3.24
2023-02-01T01:54:55.785Z,3.14
2023-02-01T01:57:26.138Z,3.15
2023-02-01T01:59:54.544Z,3.16
2023-02-01T02:02:21.153Z,3.09
2023-02-01T02:04:47.781Z,3.09
2023-02-01T02:07:15.531Z,3.17
2023-02-01T02:09:54.703Z,3.25
2023-02-01T02:12:26.438Z,3.01
2023-02-01T02:14:53.368Z,3.10
2023-02-01T02:17:35.359Z,2.97
2023-02-01T02:20:22.528Z,2.98
2023-02-01T02:22:57.651Z,2.95
2023-02-01T02:25:43.182Z,3.06
2023-02-01T02:28:09.655Z,2.94
2023-02-01T02:30:45.455Z,2.90
2023-02-01T02:33:29.285Z,2.84
2023-02-01T02:36:16.172Z,2.93
2023-02-01T02:38:49.014Z,2.94
2023-02-01T02:41:45.034Z,3.07
2023-02-01T02:44:52.016Z,3.04
2023-02-01T02:47:27.340Z,3.14
2023-02-01T02:50:26.953Z,3.15
2023-02-01T02:53:14.112Z,2.96
2023-02-01T02:55:41.468Z,3.09
2023-02-01T02:58:26.903Z,3.05
2023-02-01T03:01:12.602Z,2.85
2023-02-01T03:03:59.099Z,3.04
2023-02-01T03:06:25.953Z,3.08
2023-02-01T03:08:55.081Z,3.13
2023-02-01T03:11:21.722Z,3.03
2023-02-01T03:17:42.026Z,3.10
2023-02-01T03:20:08.819Z,3.07
2023-02-01T03:22:36.021Z,3.14
2023-02-01T03:25:05.289Z,3.08
2023-02-01T03:27:41.129Z,3.17
2023-02-01T03:30:12.376Z,2.90
2023-02-01T03:32:57.876Z,2.94
2023-02-01T03:35:25.835Z,3.01
2023-02-01T03:37:52.821Z,3.07
2023-02-01T03:40:20.225Z,3.11
2023-02-01T03:42:48.889Z,2.98
2023-02-01T03:45:18.699Z,3.03
2023-02-01T03:47:46.357Z,2.84
2023-02-01T03:50:13.998Z,2.90
2023-02-01T03:52:40.872Z,3.05
2023-02-01T03:55:07.465Z,3.03
2023-02-01T03:57:34.767Z,3.01
2023-02-01T04:00:08.889Z,2.94
2023-02-01T04:02:40.483Z,2.94
2023-02-01T04:05:07.203Z,2.97
2023-02-01T04:07:33.702Z,2.96
2023-02-01T04:10:00.350Z,2.96
2023-02-01T04:12:26.834Z,3.03
2023-02-01T04:14:53.333Z,3.01
2023-02-01T04:17:19.775Z,3.12
2023-02-01T04:19:46.270Z,3.06
2023-02-01T04:22:13.299Z,3.07
2023-02-01T04:24:39.794Z,3.08
2023-02-01T04:27:06.222Z,3.15
2023-02-01T04:29:32.692Z,3.13
2023-02-01T04:31:59.149Z,3.08
2023-02-01T04:34:25.955Z,3.08
2023-02-01T04:36:52.428Z,3.12
2023-02-01T04:39:18.893Z,3.14
2023-02-01T04:41:45.324Z,3.08
2023-02-01T04:44:18.204Z,3.11
2023-02-01T04:46:44.796Z,3.06
2023-02-01T04:49:11.355Z,2.96
2023-02-01T04:51:38.213Z,2.81
2023-02-01T04:54:04.678Z,2.73
2023-02-01T04:56:31.205Z,2.72
2023-02-01T04:58:57.724Z,2.79
2023-02-01T05:01:25.402Z,2.87
2023-02-01T05:03:51.928Z,2.75
2023-02-01T05:06:18.421Z,2.72
2023-02-01T05:08:44.856Z,2.70
2023-02-01T05:11:31.273Z,2.68
2023-02-01T05:13:57.806Z,2.73
2023-02-01T05:16:24.297Z,2.64
2023-02-01T05:18:50.761Z,2.55
2023-02-01T05:21:17.303Z,2.74
2023-02-01T05:24:02.398Z,2.48
2023-02-01T05:26:28.939Z,2.51
2023-02-01T05:28:55.464Z,2.53
2023-02-01T05:31:22.078Z,2.44
2023-02-01T05:33:48.622Z,2.47
2023-02-01T05:36:15.211Z,2.62
2023-02-01T05:38:41.711Z,2.43
2023-02-01T05:41:08.356Z,2.55
2023-02-01T05:43:34.825Z,2.39
2023-02-01T05:46:01.348Z,2.34
2023-02-01T05:48:27.894Z,2.40
2023-02-01T05:50:54.839Z,2.44
2023-02-01T05:53:21.349Z,2.49
2023-02-01T05:55:47.779Z,2.38
2023-02-01T05:58:14.265Z,2.47
2023-02-01T06:00:40.692Z,2.52
2023-02-01T06:03:07.191Z,2.51
2023-02-01T06:05:33.733Z,2.56
2023-02-01T06:08:00.344Z,2.64
2023-02-01T06:10:26.756Z,2.72
2023-02-01T06:12:53.823Z,2.65
2023-02-01T06:15:20.266Z,2.70
2023-02-01T06:17:46.727Z,2.61
2023-02-01T06:20:13.780Z,2.55
2023-02-01T06:22:40.371Z,2.61
2023-02-01T06:25:07.252Z,2.74
2023-02-01T06:27:33.806Z,2.60
2023-02-01T06:30:00.315Z,2.84
2023-02-01T06:32:26.810Z,2.61
2023-02-01T06:34:53.625Z,2.56
2023-02-01T06:37:20.636Z,2.79
2023-02-01T06:39:47.852Z,2.76
2023-02-01T06:42:14.280Z,2.79
2023-02-01T06:44:40.781Z,2.97
2023-02-01T06:47:09.145Z,2.95
2023-02-01T06:49:35.858Z,2.75
2023-02-01T06:52:02.297Z,2.70
2023-02-01T06:54:29.022Z,2.75
2023-02-01T06:56:55.474Z,2.68
2023-02-01T06:59:22.001Z,2.75
2023-02-01T07:01:48.431Z,2.72
2023-02-01T07:04:14.987Z,2.85
2023-02-01T07:06:41.487Z,2.91
2023-02-01T07:09:08.106Z,3.01
2023-02-01T07:11:34.740Z,3.02
2023-02-01T07:14:01.205Z,2.82
2023-02-01T07:16:27.772Z,2.81
2023-02-01T07:18:54.340Z,2.90
2023-02-01T07:21:20.766Z,3.03
2023-02-01T07:23:47.254Z,2.95
2023-02-01T07:26:14.146Z,2.81
2023-02-01T07:28:40.920Z,2.95
2023-02-01T07:31:08.009Z,3.04
2023-02-01T07:33:34.598Z,3.06
2023-02-01T07:36:04.981Z,2.96
2023-02-01T07:38:31.494Z,3.04
2023-02-01T07:41:01.280Z,3.12
2023-02-01T07:43:28.253Z,3.14
2023-02-01T07:45:54.905Z,3.13
2023-02-01T07:48:21.695Z,3.13
2023-02-01T07:50:48.281Z,3.24
2023-02-01T07:53:14.797Z,3.33
2023-02-01T07:55:41.411Z,3.32
2023-02-01T07:58:07.859Z,3.39
2023-02-01T08:00:53.154Z,3.45
2023-02-01T08:03:19.625Z,3.43
2023-02-01T08:05:46.162Z,3.37
2023-02-01T08:08:12.658Z,3.37
2023-02-01T08:10:39.088Z,3.45
2023-02-01T08:13:05.594Z,3.38
2023-02-01T08:15:32.078Z,3.45
2023-02-01T08:17:59.505Z,3.51
2023-02-01T08:20:27.124Z,3.45
2023-02-01T08:22:54.617Z,3.50
2023-02-01T08:25:21.439Z,3.54
2023-02-01T08:27:47.929Z,3.49
2023-02-01T08:30:14.513Z,3.46
2023-02-01T08:32:41.136Z,3.49
2023-02-01T08:35:07.744Z,3.47
2023-02-01T08:37:34.184Z,3.38
2023-02-01T08:40:00.681Z,3.22
2023-02-01T08:42:46.111Z,3.10
2023-02-01T08:45:12.548Z,3.01
2023-02-01T08:47:38.975Z,2.94
2023-02-01T08:50:05.578Z,2.98
2023-02-01T08:52:32.007Z,2.97
2023-02-01T08:54:58.484Z,2.97
2023-02-01T08:57:24.890Z,2.89
2023-02-01T08:59:51.371Z,2.92
2023-02-01T09:02:17.809Z,3.00
2023-02-01T09:04:44.424Z,3.05
2023-02-01T09:07:10.879Z,3.10
2023-02-01T09:09:37.404Z,3.20
2023-02-01T09:12:03.992Z,3.23
2023-02-01T09:14:30.523Z,3.37
2023-02-01T09:16:56.977Z,3.39
2023-02-01T09:19:26.298Z,3.49
2023-02-01T09:21:53.286Z,3.51
2023-02-01T09:24:19.850Z,3.59
2023-02-01T09:26:46.320Z,3.59
2023-02-01T09:29:12.863Z,3.69
2023-02-01T09:31:41.854Z,3.76
2023-02-01T09:34:10.526Z,3.78
2023-02-01T09:36:36.977Z,3.80
2023-02-01T09:39:03.460Z,3.73
2023-02-01T09:41:44.141Z,3.75
2023-02-01T09:44:16.714Z,3.75
2023-02-01T09:46:43.123Z,3.67
2023-02-01T09:49:17.379Z,3.62
2023-02-01T09:51:44.956Z,3.60
2023-02-01T09:54:37.550Z,3.62
2023-02-01T09:57:12.250Z,3.59
2023-02-01T09:59:45.903Z,3.56
2023-02-01T10:02:13.726Z,3.47
2023-02-01T10:04:40.201Z,3.48
2023-02-01T10:07:18.892Z,3.51
2023-02-01T10:09:48.322Z,3.60
2023-02-01T10:12:36.456Z,3.62
2023-02-01T10:15:22.153Z,3.68
2023-02-01T10:17:56.803Z,3.88
2023-02-01T10:20:28.126Z,3.92
2023-02-01T10:23:23.071Z,4.00
2023-02-01T10:25:54.828Z,3.96
2023-02-01T10:28:22.904Z,4.04
2023-02-01T10:30:49.648Z,4.06
2023-02-01T10:33:26.293Z,4.17
2023-02-01T10:35:59.906Z,4.24
2023-02-01T10:38:27.175Z,4.26
2023-02-01T10:40:54.554Z,4.22
2023-02-01T10:43:21.022Z,4.20
2023-02-01T10:45:47.447Z,4.31
2023-02-01T10:48:13.931Z,4.24
2023-02-01T10:50:54.384Z,4.26
2023-02-01T10:53:26.601Z,4.29
2023-02-01T10:55:53.713Z,4.41
2023-02-01T10:58:32.800Z,4.38
2023-02-01T11:01:06.239Z,4.35
2023-02-01T11:03:43.137Z,4.37
2023-02-01T11:06:10.983Z,4.40
2023-02-01T11:08:47.540Z,4.51
2023-02-01T11:11:14.184Z,4.37
2023-02-01T11:13:40.836Z,4.47
2023-02-01T11:16:07.499Z,4.56
2023-02-01T11:18:37.221Z,4.41
2023-02-01T11:21:03.920Z,4.52
2023-02-01T11:23:31.024Z,4.50
2023-02-01T11:26:01.227Z,4.58
2023-02-01T11:28:31.600Z,4.49
2023-02-01T11:30:59.919Z,4.52
2023-02-01T11:33:30.781Z,4.56
2023-02-01T11:35:58.434Z,4.67
2023-02-01T11:38:32.404Z,4.50
2023-02-01T11:41:28.244Z,4.52
2023-02-01T11:43:59.537Z,4.63
2023-02-01T11:46:30.312Z,4.85
2023-02-01T11:48:56.931Z,4.95
2023-02-01T11:51:26.166Z,5.07
2023-02-01T11:54:00.209Z,5.12
2023-02-01T11:56:53.065Z,5.05
2023-02-01T11:59:22.997Z,4.99
2023-02-01T12:02:02.442Z,5.12
2023-02-01T12:04:31.915Z,4.96
2023-02-01T12:07:01.755Z,4.89
2023-02-01T12:09:38.363Z,4.79
2023-02-01T12:12:04.811Z,4.76
2023-02-01T12:14:34.223Z,4.76
2023-02-01T12:17:19.637Z,4.82
2023-02-01T12:20:05.119Z,4.79
2023-02-01T12:22:34.688Z,4.71
2023-02-01T12:25:01.698Z,4.75
2023-02-01T12:27:43.510Z,4.78
2023-02-01T12:30:16.335Z,4.84
2023-02-01T12:32:42.879Z,4.79
2023-02-01T12:35:19.456Z,4.82
2023-02-01T12:37:55.804Z,4.84
2023-02-01T12:40:28.893Z,4.86
2023-02-01T12:43:05.770Z,4.88
2023-02-01T12:45:52.671Z,4.89
2023-02-01T12:48:22.935Z,4.86
2023-02-01T12:50:55.827Z,4.85
2023-02-01T12:53:34.752Z,4.93
2023-02-01T12:56:04.925Z,4.87
2023-02-01T12:58:47.818Z,4.94
2023-02-01T13:01:29.146Z,4.95
2023-02-01T13:04:01.907Z,4.85
2023-02-01T13:06:47.363Z,4.79
2023-02-01T13:09:13.774Z,4.76
2023-02-01T13:11:43.541Z,4.74
2023-02-01T13:14:16.156Z,4.81
2023-02-01T13:16:49.695Z,4.86
2023-02-01T13:19:16.206Z,4.65
2023-02-01T13:21:47.623Z,4.70
2023-02-01T13:24:21.609Z,4.76
2023-02-01T13:26:48.105Z,4.69
2023-02-01T13:29:14.647Z,4.61
2023-02-01T13:31:46.912Z,4.73
2023-02-01T13:34:25.404Z,4.72
2023-02-01T13:37:04.928Z,4.62
2023-02-01T13:39:45.083Z,4.62
2023-02-01T13:42:14.328Z,4.87
2023-02-01T13:44:47.820Z,4.70
2023-02-01T13:47:33.881Z,4.64
2023-02-01T13:50:05.076Z,4.65
2023-02-01T13:52:31.441Z,4.62
2023-02-01T13:55:14.596Z,4.57
2023-02-01T13:57:41.391Z,4.51
2023-02-01T14:00:08.509Z,4.51
2023-02-01T14:02:43.768Z,4.44
2023-02-01T14:05:35.356Z,4.48
2023-02-01T14:08:02.064Z,4.47
2023-02-01T14:10:43.740Z,4.41
2023-02-01T14:13:13.695Z,4.49
2023-02-01T14:15:40.182Z,4.43
2023-02-01T14:18:26.580Z,4.47
2023-02-01T14:20:54.303Z,4.27
2023-02-01T14:23:22.266Z,4.31
2023-02-01T14:25:49.440Z,4.31
2023-02-01T14:28:24.342Z,4.23
2023-02-01T14:30:50.993Z,4.24
2023-02-01T14:33:24.361Z,4.10
2023-02-01T14:35:56.586Z,4.09
2023-02-01T14:38:23.043Z,4.18
2023-02-01T14:40:49.601Z,4.12
2023-02-01T14:43:29.165Z,4.07
2023-02-01T14:46:02.336Z,4.11
2023-02-01T14:48:30.682Z,4.08
2023-02-01T14:50:57.286Z,4.07
2023-02-01T14:53:25.719Z,4.02
2023-02-01T14:56:07.702Z,4.01
2023-02-01T14:58:49.712Z,4.03
2023-02-01T15:01:17.655Z,4.00
2023-02-01T15:03:44.109Z,4.00
2023-02-01T15:06:30.628Z,3.96
2023-02-01T15:09:03.713Z,3.96
2023-02-01T15:11:30.299Z,3.93
2023-02-01T15:13:58.290Z,4.04
2023-02-01T15:16:25.958Z,3.96
2023-02-01T15:19:09.022Z,4.01
2023-02-01T15:21:45.839Z,4.12
2023-02-01T15:24:16.018Z,4.13
2023-02-01T15:26:42.639Z,4.20
2023-02-01T15:29:13.145Z,4.05
2023-02-01T15:31:41.683Z,4.28
2023-02-01T15:34:08.223Z,4.12
2023-02-01T15:36:34.847Z,4.13
2023-02-01T15:39:21.266Z,4.19
2023-02-01T15:41:52.240Z,4.08
2023-02-01T15:44:19.785Z,4.24
2023-02-01T15:46:47.218Z,4.08
2023-02-01T15:49:27.663Z,4.13
2023-02-01T15:51:54.317Z,4.10
2023-02-01T15:54:23.360Z,4.14
2023-02-01T15:56:53.912Z,4.11
2023-02-01T15:59:21.125Z,4.01
2023-02-01T16:01:47.772Z,4.10
2023-02-01T16:04:21.461Z,4.08
2023-02-01T16:06:48.999Z,4.17
2023-02-01T16:09:15.623Z,4.09
2023-02-01T16:11:49.886Z,4.12
2023-02-01T16:14:16.494Z,4.11
2023-02-01T16:16:43.016Z,4.14
2023-02-01T16:19:09.515Z,4.11
2023-02-01T16:21:35.973Z,4.04
2023-02-01T16:24:04.971Z,4.08
2023-02-01T16:26:32.584Z,3.98
2023-02-01T16:28:59.634Z,3.94
2023-02-01T16:31:27.570Z,3.91
2023-02-01T16:33:54.196Z,3.94
2023-02-01T16:36:20.709Z,3.98
2023-02-01T16:38:48.948Z,3.91
2023-02-01T16:41:15.623Z,3.92
2023-02-01T16:43:42.159Z,3.86
2023-02-01T16:46:13.691Z,3.86
2023-02-01T16:48:40.509Z,3.95
2023-02-01T16:51:10.721Z,3.92
2023-02-01T16:53:53.190Z,3.92
2023-02-01T16:56:24.081Z,3.89
2023-02-01T16:58:50.584Z,3.94
2023-02-01T17:01:17.682Z,3.98
2023-02-01T17:03:46.759Z,4.04
2023-02-01T17:06:16.789Z,4.05
2023-02-01T17:08:43.745Z,4.10
2023-02-01T17:11:10.547Z,4.13
2023-02-01T17:13:37.162Z,4.09
2023-02-01T17:16:07.576Z,4.15
2023-02-01T17:18:34.873Z,4.22
2023-02-01T17:21:01.870Z,4.16
2023-02-01T17:23:29.039Z,4.12
2023-02-01T17:25:55.847Z,4.09
2023-02-01T17:28:22.297Z,3.88
2023-02-01T17:30:48.861Z,3.88
2023-02-01T17:33:22.849Z,3.89
2023-02-01T17:35:49.483Z,2.38
2023-02-01T17:38:16.115Z,1.44
2023-02-01T17:40:43.448Z,0.98
2023-02-01T17:43:16.619Z,0.95
2023-02-01T17:45:52.727Z,1.05
2023-02-01T17:48:19.791Z,0.88
2023-02-01T17:50:47.238Z,0.86
2023-02-01T17:53:13.806Z,0.93
2023-02-01T17:55:44.250Z,0.89
2023-02-01T17:58:12.674Z,0.97
2023-02-01T18:00:39.713Z,0.90
2023-02-01T18:03:06.279Z,1.01
2023-02-01T18:05:40.320Z,1.09
2023-02-01T18:08:07.236Z,1.15
2023-02-01T18:10:34.055Z,1.19
2023-02-01T18:13:01.358Z,1.10
2023-02-01T18:15:28.204Z,1.17
2023-02-01T18:17:54.619Z,1.19
2023-02-01T18:20:21.767Z,1.37
2023-02-01T18:22:51.119Z,1.30
2023-02-01T18:25:27.534Z,1.29
2023-02-01T18:27:54.752Z,1.05
2023-02-01T18:30:23.159Z,1.06
2023-02-01T18:32:49.716Z,1.13
2023-02-01T18:35:17.326Z,1.16
2023-02-01T18:37:43.927Z,1.16
2023-02-01T18:40:17.637Z,1.16
2023-02-01T18:42:44.379Z,1.22
2023-02-01T18:45:30.767Z,1.24
2023-02-01T18:47:57.685Z,1.17
2023-02-01T18:50:24.236Z,1.10
2023-02-01T18:52:52.794Z,1.16
2023-02-01T18:55:19.318Z,1.09
2023-02-01T18:57:45.808Z,1.11
2023-02-01T19:00:12.693Z,1.19
2023-02-01T19:02:39.378Z,1.12
2023-02-01T19:05:09.453Z,1.26
2023-02-01T19:07:36.176Z,1.15
2023-02-01T19:10:04.776Z,1.27
2023-02-01T19:12:31.248Z,1.19
2023-02-01T19:14:57.923Z,1.22
2023-02-01T19:17:24.429Z,1.20
2023-02-01T19:19:51.572Z,1.31
2023-02-01T19:22:18.092Z,1.27
2023-02-01T19:24:45.057Z,1.26
2023-02-01T19:27:11.607Z,1.31
2023-02-01T19:29:38.174Z,1.23
2023-02-01T19:32:05.223Z,1.26
2023-02-01T19:34:32.929Z,1.34
2023-02-01T19:36:59.773Z,1.42
2023-02-01T19:39:26.337Z,1.43
2023-02-01T19:41:52.864Z,1.49
2023-02-01T19:44:19.363Z,1.52
2023-02-01T19:46:45.931Z,1.48
2023-02-01T19:49:12.588Z,1.43
2023-02-01T19:51:41.004Z,1.59
2023-02-01T19:54:08.972Z,1.84
2023-02-01T19:56:35.835Z,1.68
2023-02-01T19:59:02.417Z,1.65
2023-02-01T20:01:28.079Z,1.60
2023-02-01T20:03:58.548Z,1.74
2023-02-01T20:06:25.073Z,1.67
2023-02-01T20:08:51.663Z,1.73
2023-02-01T20:11:18.208Z,1.53
2023-02-01T20:13:44.852Z,1.64
2023-02-01T20:16:11.319Z,1.71
2023-02-01T20:18:38.851Z,1.77
2023-02-01T20:21:05.378Z,1.73
2023-02-01T20:23:32.003Z,1.74
2023-02-01T20:26:03.055Z,1.84
2023-02-01T20:28:29.561Z,1.81
2023-02-01T20:30:56.679Z,1.77
2023-02-01T20:33:23.375Z,1.77
2023-02-01T20:35:49.864Z,1.72
2023-02-01T20:38:16.369Z,1.71
2023-02-01T20:40:42.991Z,1.82
2023-02-01T20:43:09.857Z,1.93
2023-02-01T20:45:40.477Z,1.87
2023-02-01T20:48:07.140Z,1.92
2023-02-01T20:50:33.813Z,1.86
2023-02-01T20:53:00.327Z,1.85
2023-02-01T20:55:26.803Z,1.78
2023-02-01T20:57:56.060Z,1.93
2023-02-01T21:00:22.701Z,1.85
2023-02-01T21:02:49.602Z,1.89
2023-02-01T21:05:16.352Z,1.95
2023-02-01T21:07:42.848Z,1.89
2023-02-01T21:10:09.679Z,1.88
2023-02-01T21:12:36.154Z,1.83
2023-02-01T21:15:02.982Z,1.82
2023-02-01T21:17:30.076Z,1.75
2023-02-01T21:19:56.632Z,1.85
2023-02-01T21:22:23.120Z,1.84
2023-02-01T21:24:49.611Z,1.80
2023-02-01T21:27:16.146Z,1.73
2023-02-01T21:29:42.583Z,1.74
2023-02-01T21:32:09.143Z,1.75
2023-02-01T21:34:35.631Z,1.72
2023-02-01T21:37:02.192Z,1.72
2023-02-01T21:39:29.130Z,1.73
2023-02-01T21:42:13.932Z,1.78
2023-02-01T21:44:40.907Z,1.70
2023-02-01T21:47:08.217Z,1.66
2023-02-01T21:49:35.240Z,1.68
2023-02-01T21:52:02.038Z,1.71
2023-02-01T21:54:28.463Z,1.76
2023-02-01T21:56:54.919Z,1.80
2023-02-01T21:59:21.379Z,1.86
2023-02-01T22:01:47.817Z,1.82
2023-02-01T22:04:14.259Z,1.77
2023-02-01T22:06:41.711Z,1.81
2023-02-01T22:09:10.551Z,1.84
2023-02-01T22:11:37.023Z,1.75
2023-02-01T22:14:03.466Z,1.82
2023-02-01T22:16:31.645Z,1.88
2023-02-01T22:18:58.249Z,1.88
2023-02-01T22:21:24.871Z,1.86
2023-02-01T22:23:52.273Z,1.88
2023-02-01T22:26:18.753Z,1.88
2023-02-01T22:28:45.257Z,1.94
2023-02-01T22:31:12.678Z,2.12
2023-02-01T22:33:39.184Z,1.98
2023-02-01T22:36:05.855Z,2.04
2023-02-01T22:38:32.843Z,1.98
2023-02-01T22:40:59.661Z,1.98
2023-02-01T22:43:26.111Z,1.98
2023-02-01T22:45:52.650Z,1.91
2023-02-01T22:48:19.136Z,2.10
2023-02-01T22:50:45.669Z,1.97
2023-02-01T22:53:12.427Z,1.96
2023-02-01T22:55:40.924Z,1.95
2023-02-01T22:58:08.322Z,2.03
2023-02-01T23:00:34.796Z,2.03
2023-02-01T23:03:01.516Z,2.00
2023-02-01T23:05:27.991Z,2.06
2023-02-01T23:07:54.431Z,2.02
2023-02-01T23:10:21.727Z,1.99
2023-02-01T23:12:48.170Z,2.03
2023-02-01T23:15:16.174Z,2.08
2023-02-01T23:17:43.445Z,2.05
2023-02-01T23:20:16.861Z,2.02
2023-02-01T23:22:43.646Z,2.13
2023-02-01T23:25:10.324Z,2.16
2023-02-01T23:27:36.788Z,2.18
2023-02-01T23:30:05.452Z,2.08
2023-02-01T23:32:33.356Z,2.18
2023-02-01T23:34:59.897Z,2.12
2023-02-01T23:37:26.317Z,2.11
2023-02-01T23:39:52.821Z,2.01
2023-02-01T23:42:19.485Z,2.03
2023-02-01T23:44:45.994Z,2.07
2023-02-01T23:47:12.410Z,2.16
2023-02-01T23:49:38.870Z,2.25
2023-02-01T23:52:05.485Z,2.12
2023-02-01T23:54:31.941Z,2.21
2023-02-01T23:56:58.403Z,2.17
2023-02-01T23:59:26.592Z,2.18
